Time,TemperatureF,DewpointF,PressureIn,WindDirection,WindDirectionDegrees,WindSpeedMPH,WindSpeedGustMPH,Humidity,HourlyPrecipIn,Conditions,Clouds,dailyrainin,SoftwareType,DateUTC
2013-04-04 00:00:00,32.0,15.4,30.33,SSW,202,10.0,10.0,50,0.00,,,0.00,Weather View 32 v70,2013-04-04 04:00:00,
2013-04-04 00:05:00,33.0,15.9,30.33,WNW,292,4.0,10.0,49,0.00,,,0.00,Weather View 32 v70,2013-04-04 04:05:00,
2013-04-04 00:10:00,32.0,15.4,30.33,SSW,202,7.0,10.0,50,0.00,,,0.00,Weather View 32 v70,2013-04-04 04:10:00,
2013-04-04 00:15:00,33.0,14.9,30.33,SSW,202,0.0,10.0,47,0.00,,,0.00,Weather View 32 v70,2013-04-04 04:15:00,
2013-04-04 00:20:00,0.0,-78.6,0.30,North,0,0.0,10.0,1,0.00,,,0.00,Weather View 32 v70,2013-04-04 04:20:00,
2013-04-04 00:23:00,0.0,-78.6,0.30,North,0,0.0,10.0,1,0.00,,,0.00,Weather View 32 v70,2013-04-04 04:23:00,
2013-04-04 00:30:00,34.0,14.9,30.33,WNW,292,10.0,13.0,45,0.00,,,0.00,Weather View 32 v70,2013-04-04 04:30:00,
2013-04-04 00:35:00,34.0,15.4,30.33,WNW,292,8.0,13.0,46,0.00,,,0.00,Weather View 32 v70,2013-04-04 04:35:00,
2013-04-04 00:45:00,33.0,14.5,30.33,SSW,202,2.0,13.0,46,0.00,,,0.00,Weather View 32 v70,2013-04-04 04:45:00,
2013-04-04 00:50:00,33.0,14.5,30.33,WNW,292,0.0,13.0,46,0.00,,,0.00,Weather View 32 v70,2013-04-04 04:50:00,
2013-04-04 01:00:00,33.0,14.9,30.33,SSW,202,0.0,15.0,47,0.00,,,0.00,Weather View 32 v70,2013-04-04 05:00:00,
2013-04-04 01:05:00,33.0,14.9,30.32,SSW,202,4.0,15.0,47,0.00,,,0.00,Weather View 32 v70,2013-04-04 05:05:00,
2013-04-04 01:10:00,33.0,14.9,30.32,SSW,202,7.0,15.0,47,0.00,,,0.00,Weather View 32 v70,2013-04-04 05:10:00,
2013-04-04 01:15:00,33.0,15.4,30.32,NNW,337,4.0,15.0,48,0.00,,,0.00,Weather View 32 v70,2013-04-04 05:15:00,
2013-04-04 01:24:00,33.0,15.9,30.32,SSW,202,1.0,15.0,49,0.00,,,0.00,Weather View 32 v70,2013-04-04 05:24:00,
2013-04-04 01:30:00,32.0,15.4,30.32,ENE,67,0.0,15.0,50,0.00,,,0.00,Weather View 32 v70,2013-04-04 05:30:00,
2013-04-04 01:35:00,32.0,16.4,30.32,NE,45,0.0,15.0,52,0.00,,,0.00,Weather View 32 v70,2013-04-04 05:35:00,
2013-04-04 01:45:00,31.0,15.9,30.31,SSW,202,0.0,15.0,53,0.00,,,0.00,Weather View 32 v70,2013-04-04 05:45:00,
2013-04-04 01:50:00,30.0,14.9,30.31,SSW,202,0.0,15.0,53,0.00,,,0.00,Weather View 32 v70,2013-04-04 05:50:00,
2013-04-04 02:00:00,30.0,16.2,30.31,SSW,202,0.0,15.0,56,0.00,,,0.00,Weather View 32 v70,2013-04-04 06:00:00,
2013-04-04 02:05:00,29.0,16.8,30.31,SSW,202,0.0,9.0,60,0.00,,,0.00,Weather View 32 v70,2013-04-04 06:05:00,
2013-04-04 02:10:00,28.0,15.1,30.31,SSW,202,0.0,9.0,58,0.00,,,0.00,Weather View 32 v70,2013-04-04 06:10:00,
2013-04-04 02:15:00,27.0,13.8,30.32,SSW,202,0.0,9.0,57,0.00,,,0.00,Weather View 32 v70,2013-04-04 06:15:00,
2013-04-04 02:20:00,27.0,14.2,30.32,SSW,202,0.0,9.0,58,0.00,,,0.00,Weather View 32 v70,2013-04-04 06:20:00,
2013-04-04 02:30:00,27.0,15.3,30.32,ESE,112,0.0,9.0,61,0.00,,,0.00,Weather View 32 v70,2013-04-04 06:30:00,
2013-04-04 02:35:00,27.0,16.1,30.32,ESE,112,0.0,1.0,63,0.00,,,0.00,Weather View 32 v70,2013-04-04 06:35:00,
2013-04-04 02:45:00,26.0,16.2,30.32,SSW,202,0.0,1.0,66,0.00,,,0.00,Weather View 32 v70,2013-04-04 06:45:00,
2013-04-04 02:50:00,26.0,15.5,30.33,ESE,112,0.0,0.0,64,0.00,,,0.00,Weather View 32 v70,2013-04-04 06:50:00,
2013-04-04 02:55:00,26.0,15.8,30.33,SSW,202,0.0,0.0,65,0.00,,,0.00,Weather View 32 v70,2013-04-04 06:55:00,
2013-04-04 03:00:00,26.0,15.1,30.33,SSW,202,0.0,0.0,63,0.00,,,0.00,Weather View 32 v70,2013-04-04 07:00:00,
2013-04-04 03:10:00,25.0,15.9,30.32,SSW,202,0.0,0.0,68,0.00,,,0.00,Weather View 32 v70,2013-04-04 07:10:00,
2013-04-04 03:15:00,25.0,18.2,30.33,SE,135,0.0,0.0,75,0.00,,,0.00,Weather View 32 v70,2013-04-04 07:15:00,
2013-04-04 03:25:00,25.0,17.6,30.34,ESE,112,0.0,1.0,73,0.00,,,0.00,Weather View 32 v70,2013-04-04 07:25:00,
2013-04-04 03:35:00,26.0,18.2,30.34,SSE,157,3.0,3.0,72,0.00,,,0.00,Weather View 32 v70,2013-04-04 07:35:00,
2013-04-04 03:40:00,26.0,20.1,30.34,SSW,202,3.0,5.0,78,0.00,,,0.00,Weather View 32 v70,2013-04-04 07:40:00,
2013-04-04 03:45:00,27.0,18.5,30.33,East,90,0.0,5.0,70,0.00,,,0.00,Weather View 32 v70,2013-04-04 07:45:00,
2013-04-04 04:00:00,27.0,17.5,30.34,East,90,0.0,5.0,67,0.00,,,0.00,Weather View 32 v70,2013-04-04 08:00:00,
2013-04-04 04:05:00,28.0,18.1,30.34,SSW,202,0.0,5.0,66,0.00,,,0.00,Weather View 32 v70,2013-04-04 08:05:00,
2013-04-04 04:10:00,28.0,18.1,30.34,SSW,202,0.0,5.0,66,0.00,,,0.00,Weather View 32 v70,2013-04-04 08:10:00,
2013-04-04 04:15:00,28.0,17.8,30.34,NNW,337,0.0,5.0,65,0.00,,,0.00,Weather View 32 v70,2013-04-04 08:15:00,
2013-04-04 04:20:00,28.0,18.8,30.35,NNW,337,0.0,5.0,68,0.00,,,0.00,Weather View 32 v70,2013-04-04 08:20:00,
2013-04-04 04:25:00,27.0,18.5,30.35,NW,315,0.0,5.0,70,0.00,,,0.00,Weather View 32 v70,2013-04-04 08:25:00,
2013-04-04 04:30:00,27.0,18.9,30.36,NW,315,0.0,5.0,71,0.00,,,0.00,Weather View 32 v70,2013-04-04 08:30:00,
2013-04-04 04:35:00,26.0,18.5,30.36,SSW,202,0.0,5.0,73,0.00,,,0.00,Weather View 32 v70,2013-04-04 08:35:00,
2013-04-04 04:40:00,26.0,19.2,30.36,SSW,202,0.0,5.0,75,0.00,,,0.00,Weather View 32 v70,2013-04-04 08:40:00,
2013-04-04 04:45:00,26.0,19.2,30.37,SSW,202,0.0,5.0,75,0.00,,,0.00,Weather View 32 v70,2013-04-04 08:45:00,
2013-04-04 04:55:00,25.0,18.8,30.37,SSW,202,0.0,1.0,77,0.00,,,0.00,Weather View 32 v70,2013-04-04 08:55:00,
2013-04-04 05:00:00,25.0,19.1,30.37,ENE,67,0.0,1.0,78,0.00,,,0.00,Weather View 32 v70,2013-04-04 09:00:00,
2013-04-04 05:10:00,24.0,18.1,30.38,ESE,112,0.0,1.0,78,0.00,,,0.00,Weather View 32 v70,2013-04-04 09:10:00,
2013-04-04 05:20:00,24.0,18.1,30.38,SSW,202,0.0,0.0,78,0.00,,,0.00,Weather View 32 v70,2013-04-04 09:20:00,
2013-04-04 05:25:00,24.0,18.1,30.38,ESE,112,0.0,0.0,78,0.00,,,0.00,Weather View 32 v70,2013-04-04 09:25:00,
2013-04-04 05:30:00,24.0,18.4,30.38,ESE,112,0.0,0.0,79,0.00,,,0.00,Weather View 32 v70,2013-04-04 09:30:00,
2013-04-04 05:35:00,23.0,18.0,30.38,SSW,202,0.0,0.0,81,0.00,,,0.00,Weather View 32 v70,2013-04-04 09:35:00,
2013-04-04 05:40:00,23.0,18.3,30.38,SSW,202,0.0,0.0,82,0.00,,,0.00,Weather View 32 v70,2013-04-04 09:40:00,
2013-04-04 05:45:00,0.0,-78.6,0.30,North,0,0.0,0.0,1,0.00,,,0.00,Weather View 32 v70,2013-04-04 09:45:00,
2013-04-04 05:55:00,23.0,19.4,30.39,SSW,202,0.0,0.0,86,0.00,,,0.00,Weather View 32 v70,2013-04-04 09:55:00,
2013-04-04 06:00:00,23.0,20.5,30.40,ESE,112,0.0,0.0,90,0.00,,,0.00,Weather View 32 v70,2013-04-04 10:00:00,
2013-04-04 06:10:00,22.0,18.2,30.42,ESE,112,0.0,0.0,85,0.00,,,0.00,Weather View 32 v70,2013-04-04 10:10:00,
2013-04-04 06:15:00,22.0,18.5,30.42,ESE,112,0.0,0.0,86,0.00,,,0.00,Weather View 32 v70,2013-04-04 10:15:00,
2013-04-04 06:20:00,22.0,19.5,30.42,ESE,112,0.0,0.0,90,0.00,,,0.00,Weather View 32 v70,2013-04-04 10:20:00,
2013-04-04 06:27:00,22.0,19.5,30.42,ESE,112,0.0,0.0,90,0.00,,,0.00,Weather View 32 v70,2013-04-04 10:27:00,
2013-04-04 06:35:00,23.0,20.5,30.41,SSW,202,0.0,0.0,90,0.00,,,0.00,Weather View 32 v70,2013-04-04 10:35:00,
2013-04-04 06:40:00,23.0,20.5,30.41,SSW,202,0.0,0.0,90,0.00,,,0.00,Weather View 32 v70,2013-04-04 10:40:00,
2013-04-04 06:45:00,23.0,20.5,30.42,SSW,202,0.0,0.0,90,0.00,,,0.00,Weather View 32 v70,2013-04-04 10:45:00,
2013-04-04 06:55:00,22.0,20.0,30.43,SSW,202,0.0,0.0,92,0.00,,,0.00,Weather View 32 v70,2013-04-04 10:55:00,
2013-04-04 07:00:00,22.0,20.3,30.43,SSW,202,0.0,0.0,93,0.00,,,0.00,Weather View 32 v70,2013-04-04 11:00:00,
2013-04-04 07:05:00,22.0,20.8,30.44,SSW,202,0.0,0.0,95,0.00,,,0.00,Weather View 32 v70,2013-04-04 11:05:00,
2013-04-04 07:15:00,22.0,19.8,30.44,SSW,202,0.0,0.0,91,0.00,,,0.00,Weather View 32 v70,2013-04-04 11:15:00,
2013-04-04 07:20:00,22.0,20.5,30.44,ESE,112,0.0,0.0,94,0.00,,,0.00,Weather View 32 v70,2013-04-04 11:20:00,
2013-04-04 07:27:00,22.0,20.8,30.44,SSW,202,0.0,0.0,95,0.00,,,0.00,Weather View 32 v70,2013-04-04 11:27:00,
2013-04-04 07:35:00,23.0,21.5,30.44,SSW,202,0.0,0.0,94,0.00,,,0.00,Weather View 32 v70,2013-04-04 11:35:00,
2013-04-04 07:40:00,24.0,21.5,30.44,ESE,112,0.0,0.0,90,0.00,,,0.00,Weather View 32 v70,2013-04-04 11:40:00,
2013-04-04 07:45:00,25.0,22.2,30.44,ESE,112,0.0,0.0,89,0.00,,,0.00,Weather View 32 v70,2013-04-04 11:45:00,
2013-04-04 07:55:00,28.0,22.9,30.44,SSW,202,0.0,0.0,81,0.00,,,0.00,Weather View 32 v70,2013-04-04 11:55:00,
2013-04-04 08:05:00,30.0,24.9,30.43,SSW,202,0.0,0.0,81,0.00,,,0.00,Weather View 32 v70,2013-04-04 12:05:00,
2013-04-04 08:10:00,33.0,25.0,30.42,SSW,202,0.0,0.0,72,0.00,,,0.00,Weather View 32 v70,2013-04-04 12:10:00,
2013-04-04 08:20:00,34.0,22.7,30.42,SSW,202,0.0,0.0,63,0.00,,,0.00,Weather View 32 v70,2013-04-04 12:20:00,
2013-04-04 08:25:00,34.0,23.1,30.42,SSW,202,0.0,0.0,64,0.00,,,0.00,Weather View 32 v70,2013-04-04 12:25:00,
2013-04-04 08:30:00,35.0,21.7,30.42,SSW,202,0.0,0.0,58,0.00,,,0.00,Weather View 32 v70,2013-04-04 12:30:00,
2013-04-04 08:35:00,36.0,21.8,30.41,SE,135,0.0,0.0,56,0.00,,,0.00,Weather View 32 v70,2013-04-04 12:35:00,
2013-04-04 08:45:00,36.0,21.4,30.40,WNW,292,0.0,1.0,55,0.00,,,0.00,Weather View 32 v70,2013-04-04 12:45:00,
2013-04-04 08:50:00,37.0,22.7,30.40,SSW,202,1.0,1.0,56,0.00,,,0.00,Weather View 32 v70,2013-04-04 12:50:00,
2013-04-04 08:55:00,38.0,21.5,30.40,SSE,157,0.0,2.0,51,0.00,,,0.00,Weather View 32 v70,2013-04-04 12:55:00,
2013-04-04 09:00:00,39.0,20.5,30.39,East,90,0.0,2.0,47,0.00,,,0.00,Weather View 32 v70,2013-04-04 13:00:00,
2013-04-04 09:05:00,39.0,21.4,30.39,SSW,202,0.0,2.0,49,0.00,,,0.00,Weather View 32 v70,2013-04-04 13:05:00,
2013-04-04 09:10:00,39.0,19.9,30.38,ESE,112,1.0,2.0,46,0.00,,,0.00,Weather View 32 v70,2013-04-04 13:10:00,
2013-04-04 09:15:00,40.0,21.4,30.38,SSW,202,0.0,2.0,47,0.00,,,0.00,Weather View 32 v70,2013-04-04 13:15:00,
2013-04-04 09:25:00,40.0,21.4,30.38,SSW,202,1.0,2.0,47,0.00,,,0.00,Weather View 32 v70,2013-04-04 13:25:00,
2013-04-04 09:30:00,41.0,21.8,30.38,SSW,202,1.0,2.0,46,0.00,,,0.00,Weather View 32 v70,2013-04-04 13:30:00,
2013-04-04 09:40:00,40.0,20.9,30.38,SSW,202,0.0,3.0,46,0.00,,,0.00,Weather View 32 v70,2013-04-04 13:40:00,
2013-04-04 09:45:00,40.0,20.3,30.38,SW,225,0.0,3.0,45,0.00,,,0.00,Weather View 32 v70,2013-04-04 13:45:00,
2013-04-04 09:50:00,40.0,20.9,30.38,SSW,202,1.0,3.0,46,0.00,,,0.00,Weather View 32 v70,2013-04-04 13:50:00,
2013-04-04 10:00:00,41.0,21.8,30.36,West,270,0.0,4.0,46,0.00,,,0.00,Weather View 32 v70,2013-04-04 14:00:00,
2013-04-04 10:05:00,41.0,22.3,30.36,SSW,202,0.0,4.0,47,0.00,,,0.00,Weather View 32 v70,2013-04-04 14:05:00,
2013-04-04 10:10:00,40.0,20.3,30.36,SSW,202,3.0,4.0,45,0.00,,,0.00,Weather View 32 v70,2013-04-04 14:10:00,
2013-04-04 10:20:00,41.0,21.3,30.36,West,270,0.0,4.0,45,0.00,,,0.00,Weather View 32 v70,2013-04-04 14:20:00,
2013-04-04 10:29:00,40.0,20.3,30.36,SSW,202,1.0,5.0,45,0.00,,,0.00,Weather View 32 v70,2013-04-04 14:29:00,
2013-04-04 10:35:00,40.0,19.8,30.36,WSW,247,0.0,7.0,44,0.00,,,0.00,Weather View 32 v70,2013-04-04 14:35:00,
2013-04-04 10:40:00,41.0,20.2,30.35,WSW,247,2.0,7.0,43,0.00,,,0.00,Weather View 32 v70,2013-04-04 14:40:00,
2013-04-04 10:45:00,41.0,19.6,30.35,WSW,247,2.0,7.0,42,0.00,,,0.00,Weather View 32 v70,2013-04-04 14:45:00,
2013-04-04 10:50:00,41.0,19.1,30.35,SSW,202,2.0,7.0,41,0.00,,,0.00,Weather View 32 v70,2013-04-04 14:50:00,
2013-04-04 11:05:00,41.0,19.1,30.35,SSW,202,8.0,8.0,41,0.00,,,0.00,Weather View 32 v70,2013-04-04 15:05:00,
2013-04-04 11:10:00,0.0,-78.6,0.30,North,0,0.0,8.0,1,0.00,,,0.00,Weather View 32 v70,2013-04-04 15:10:00,
2013-04-04 11:15:00,43.0,19.1,30.34,WSW,247,2.0,8.0,38,0.00,,,0.00,Weather View 32 v70,2013-04-04 15:15:00,
2013-04-04 11:25:00,44.0,20.0,30.32,SSW,202,0.0,8.0,38,0.00,,,0.00,Weather View 32 v70,2013-04-04 15:25:00,
2013-04-04 11:30:00,44.0,19.4,30.32,WNW,292,0.0,8.0,37,0.00,,,0.00,Weather View 32 v70,2013-04-04 15:30:00,
2013-04-04 11:40:00,43.0,18.5,30.32,SSW,202,6.0,9.0,37,0.00,,,0.00,Weather View 32 v70,2013-04-04 15:40:00,
2013-04-04 11:45:00,44.0,18.1,30.32,SSW,202,4.0,9.0,35,0.00,,,0.00,Weather View 32 v70,2013-04-04 15:45:00,
2013-04-04 11:55:00,44.0,18.7,30.31,SW,225,0.0,9.0,36,0.00,,,0.00,Weather View 32 v70,2013-04-04 15:55:00,
2013-04-04 12:05:00,45.0,18.3,30.30,SW,225,1.0,9.0,34,0.00,,,0.00,Weather View 32 v70,2013-04-04 16:05:00,
2013-04-04 12:10:00,46.0,18.5,30.29,SSE,157,2.0,9.0,33,0.00,,,0.00,Weather View 32 v70,2013-04-04 16:10:00,
2013-04-04 12:20:00,46.0,18.5,30.29,SSW,202,8.0,9.0,33,0.00,,,0.00,Weather View 32 v70,2013-04-04 16:20:00,
2013-04-04 12:25:00,46.0,18.5,30.28,West,270,3.0,10.0,33,0.00,,,0.00,Weather View 32 v70,2013-04-04 16:25:00,
2013-04-04 12:30:00,46.0,19.8,30.28,SSW,202,0.0,10.0,35,0.00,,,0.00,Weather View 32 v70,2013-04-04 16:30:00,
2013-04-04 12:40:00,47.0,20.7,30.26,SSW,202,5.0,10.0,35,0.00,,,0.00,Weather View 32 v70,2013-04-04 16:40:00,
2013-04-04 12:45:00,47.0,18.6,30.26,SSW,202,7.0,10.0,32,0.00,,,0.00,Weather View 32 v70,2013-04-04 16:45:00,
2013-04-04 12:50:00,47.0,19.3,30.26,SSW,202,4.0,10.0,33,0.00,,,0.00,Weather View 32 v70,2013-04-04 16:50:00,
2013-04-04 12:55:00,48.0,19.5,30.25,SSW,202,6.0,10.0,32,0.00,,,0.00,Weather View 32 v70,2013-04-04 16:55:00,
2013-04-04 13:00:00,48.0,20.2,30.24,SSE,157,3.0,10.0,33,0.00,,,0.00,Weather View 32 v70,2013-04-04 17:00:00,
2013-04-04 13:10:00,48.0,20.2,30.24,SSW,202,5.0,10.0,33,0.00,,,0.00,Weather View 32 v70,2013-04-04 17:10:00,
2013-04-04 13:20:00,48.0,18.0,30.24,SSW,202,7.0,12.0,30,0.00,,,0.00,Weather View 32 v70,2013-04-04 17:20:00,
2013-04-04 13:25:00,49.0,18.1,30.23,SSW,202,5.0,12.0,29,0.00,,,0.00,Weather View 32 v70,2013-04-04 17:25:00,
2013-04-04 13:30:00,49.0,18.9,30.23,West,270,3.0,12.0,30,0.00,,,0.00,Weather View 32 v70,2013-04-04 17:30:00,
2013-04-04 13:35:00,49.0,19.6,30.23,WSW,247,5.0,12.0,31,0.00,,,0.00,Weather View 32 v70,2013-04-04 17:35:00,
2013-04-04 13:45:00,49.0,19.6,30.22,SSW,202,6.0,12.0,31,0.00,,,0.00,Weather View 32 v70,2013-04-04 17:45:00,
2013-04-04 13:50:00,50.0,18.1,30.21,SSW,202,3.0,12.0,28,0.00,,,0.00,Weather View 32 v70,2013-04-04 17:50:00,
2013-04-04 13:55:00,50.0,18.1,30.21,SSW,202,10.0,12.0,28,0.00,,,0.00,Weather View 32 v70,2013-04-04 17:55:00,
2013-04-04 14:00:00,51.0,19.0,30.20,WSW,247,5.0,12.0,28,0.00,,,0.00,Weather View 32 v70,2013-04-04 18:00:00,
2013-04-04 14:05:00,51.0,18.1,30.20,SSW,202,6.0,12.0,27,0.00,,,0.00,Weather View 32 v70,2013-04-04 18:05:00,
2013-04-04 14:15:00,52.0,20.7,30.18,SW,225,0.0,12.0,29,0.00,,,0.00,Weather View 32 v70,2013-04-04 18:15:00,
2013-04-04 14:20:00,52.0,19.8,30.18,SSW,202,3.0,12.0,28,0.00,,,0.00,Weather View 32 v70,2013-04-04 18:20:00,
2013-04-04 14:30:00,51.0,18.1,30.18,West,270,5.0,12.0,27,0.00,,,0.00,Weather View 32 v70,2013-04-04 18:30:00,
2013-04-04 14:35:00,51.0,19.8,30.18,SSW,202,6.0,12.0,29,0.00,,,0.00,Weather View 32 v70,2013-04-04 18:35:00,
2013-04-04 14:45:00,52.0,19.8,30.17,WSW,247,6.0,12.0,28,0.00,,,0.00,Weather View 32 v70,2013-04-04 18:45:00,
2013-04-04 14:50:00,53.0,21.5,30.16,SW,225,5.0,12.0,29,0.00,,,0.00,Weather View 32 v70,2013-04-04 18:50:00,
2013-04-04 15:00:00,53.0,20.7,30.15,SSE,157,6.0,12.0,28,0.00,,,0.00,Weather View 32 v70,2013-04-04 19:00:00,
2013-04-04 15:05:00,54.0,19.8,30.15,SSW,202,10.0,12.0,26,0.00,,,0.00,Weather View 32 v70,2013-04-04 19:05:00,
2013-04-04 15:15:00,55.0,19.8,30.14,SSW,202,10.0,12.0,25,0.00,,,0.00,Weather View 32 v70,2013-04-04 19:15:00,
2013-04-04 15:20:00,55.0,18.8,30.12,East,90,6.0,12.0,24,0.00,,,0.00,Weather View 32 v70,2013-04-04 19:20:00,
2013-04-04 15:25:00,55.0,20.7,30.12,SSW,202,5.0,12.0,26,0.00,,,0.00,Weather View 32 v70,2013-04-04 19:25:00,
2013-04-04 15:30:00,56.0,20.6,30.11,SW,225,2.0,12.0,25,0.00,,,0.00,Weather View 32 v70,2013-04-04 19:30:00,
2013-04-04 15:40:00,56.0,18.7,30.11,SSW,202,8.0,13.0,23,0.00,,,0.00,Weather View 32 v70,2013-04-04 19:40:00,
2013-04-04 15:50:00,55.0,18.8,30.10,SSW,202,7.0,13.0,24,0.00,,,0.00,Weather View 32 v70,2013-04-04 19:50:00,
2013-04-04 15:55:00,55.0,18.8,30.10,WSW,247,2.0,13.0,24,0.00,,,0.00,Weather View 32 v70,2013-04-04 19:55:00,
2013-04-04 16:00:00,56.0,20.6,30.09,SSE,157,8.0,13.0,25,0.00,,,0.00,Weather View 32 v70,2013-04-04 20:00:00,
2013-04-04 16:05:00,56.0,19.6,30.09,SSW,202,6.0,13.0,24,0.00,,,0.00,Weather View 32 v70,2013-04-04 20:05:00,
2013-04-04 16:10:00,55.0,19.8,30.09,SSW,202,4.0,13.0,25,0.00,,,0.00,Weather View 32 v70,2013-04-04 20:10:00,
2013-04-04 16:20:00,55.0,19.8,30.10,SSW,202,8.0,16.0,25,0.00,,,0.00,Weather View 32 v70,2013-04-04 20:20:00,
2013-04-04 16:25:00,55.0,18.8,30.09,SSW,202,16.0,16.0,24,0.00,,,0.00,Weather View 32 v70,2013-04-04 20:25:00,
2013-04-04 16:30:00,55.0,18.8,30.09,SSW,202,7.0,16.0,24,0.00,,,0.00,Weather View 32 v70,2013-04-04 20:30:00,
2013-04-04 16:35:00,55.0,19.8,30.08,SSW,202,1.0,16.0,25,0.00,,,0.00,Weather View 32 v70,2013-04-04 20:35:00,
2013-04-04 16:45:00,56.0,19.6,30.08,SSW,202,9.0,16.0,24,0.00,,,0.00,Weather View 32 v70,2013-04-04 20:45:00,
2013-04-04 16:50:00,55.0,18.8,30.08,SW,225,5.0,16.0,24,0.00,,,0.00,Weather View 32 v70,2013-04-04 20:50:00,
2013-04-04 16:55:00,55.0,20.7,30.08,SW,225,4.0,16.0,26,0.00,,,0.00,Weather View 32 v70,2013-04-04 20:55:00,
2013-04-04 17:00:00,56.0,20.6,30.08,SSW,202,1.0,16.0,25,0.00,,,0.00,Weather View 32 v70,2013-04-04 21:00:00,
2013-04-04 17:05:00,56.0,20.6,30.07,SSW,202,18.0,18.0,25,0.00,,,0.00,Weather View 32 v70,2013-04-04 21:05:00,
2013-04-04 17:10:00,56.0,20.6,30.06,WSW,247,3.0,18.0,25,0.00,,,0.00,Weather View 32 v70,2013-04-04 21:10:00,
2013-04-04 17:15:00,55.0,20.7,30.06,WSW,247,1.0,18.0,26,0.00,,,0.00,Weather View 32 v70,2013-04-04 21:15:00,
2013-04-04 17:25:00,55.0,20.7,30.06,WSW,247,0.0,18.0,26,0.00,,,0.00,Weather View 32 v70,2013-04-04 21:25:00,
2013-04-04 17:30:00,55.0,20.7,30.06,SW,225,5.0,18.0,26,0.00,,,0.00,Weather View 32 v70,2013-04-04 21:30:00,
2013-04-04 17:35:00,55.0,20.7,30.06,SSW,202,8.0,18.0,26,0.00,,,0.00,Weather View 32 v70,2013-04-04 21:35:00,
2013-04-04 17:40:00,55.0,21.6,30.05,WSW,247,3.0,18.0,27,0.00,,,0.00,Weather View 32 v70,2013-04-04 21:40:00,
2013-04-04 17:45:00,54.0,20.7,30.05,SSW,202,8.0,18.0,27,0.00,,,0.00,Weather View 32 v70,2013-04-04 21:45:00,
2013-04-04 17:50:00,55.0,20.7,30.05,SW,225,5.0,18.0,26,0.00,,,0.00,Weather View 32 v70,2013-04-04 21:50:00,
2013-04-04 18:00:00,54.0,20.7,30.05,SSW,202,10.0,18.0,27,0.00,,,0.00,Weather View 32 v70,2013-04-04 22:00:00,
2013-04-04 18:10:00,54.0,21.6,30.05,SW,225,0.0,18.0,28,0.00,,,0.00,Weather View 32 v70,2013-04-04 22:10:00,
2013-04-04 18:15:00,54.0,21.6,30.05,SSW,202,7.0,18.0,28,0.00,,,0.00,Weather View 32 v70,2013-04-04 22:15:00,
2013-04-04 18:25:00,54.0,21.6,30.05,SSW,202,7.0,15.0,28,0.00,,,0.00,Weather View 32 v70,2013-04-04 22:25:00,
2013-04-04 18:30:00,53.0,20.7,30.05,SSW,202,7.0,15.0,28,0.00,,,0.00,Weather View 32 v70,2013-04-04 22:30:00,
2013-04-04 18:40:00,53.0,20.7,30.05,SW,225,2.0,15.0,28,0.00,,,0.00,Weather View 32 v70,2013-04-04 22:40:00,
2013-04-04 18:45:00,53.0,20.7,30.05,SW,225,3.0,15.0,28,0.00,,,0.00,Weather View 32 v70,2013-04-04 22:45:00,
2013-04-04 18:50:00,53.0,20.7,30.05,SSW,202,6.0,15.0,28,0.00,,,0.00,Weather View 32 v70,2013-04-04 22:50:00,
2013-04-04 18:55:00,53.0,21.5,30.05,SSW,202,2.0,15.0,29,0.00,,,0.00,Weather View 32 v70,2013-04-04 22:55:00,
2013-04-04 19:00:00,53.0,21.5,30.05,SSW,202,7.0,15.0,29,0.00,,,0.00,Weather View 32 v70,2013-04-04 23:00:00,
2013-04-04 19:10:00,52.0,21.5,30.05,SSW,202,6.0,15.0,30,0.00,,,0.00,Weather View 32 v70,2013-04-04 23:10:00,
2013-04-04 19:15:00,52.0,21.5,30.05,SSW,202,6.0,15.0,30,0.00,,,0.00,Weather View 32 v70,2013-04-04 23:15:00,
2013-04-04 19:20:00,52.0,21.5,30.05,SW,225,3.0,14.0,30,0.00,,,0.00,Weather View 32 v70,2013-04-04 23:20:00,
2013-04-04 19:25:00,52.0,22.2,30.05,SSW,202,1.0,14.0,31,0.00,,,0.00,Weather View 32 v70,2013-04-04 23:25:00,
2013-04-04 19:30:00,52.0,22.2,30.05,South,180,1.0,14.0,31,0.00,,,0.00,Weather View 32 v70,2013-04-04 23:30:00,
2013-04-04 19:35:00,51.0,20.6,30.05,SW,225,8.0,14.0,30,0.00,,,0.00,Weather View 32 v70,2013-04-04 23:35:00,
2013-04-04 19:45:00,51.0,21.4,30.05,SW,225,4.0,14.0,31,0.00,,,0.00,Weather View 32 v70,2013-04-04 23:45:00,
2013-04-04 19:50:00,51.0,22.1,30.05,SSW,202,2.0,13.0,32,0.00,,,0.00,Weather View 32 v70,2013-04-04 23:50:00,
2013-04-04 19:55:00,51.0,22.1,30.06,SSW,202,6.0,13.0,32,0.00,,,0.00,Weather View 32 v70,2013-04-04 23:55:00,
2013-04-04 20:00:00,51.0,22.1,30.06,SSW,202,7.0,13.0,32,0.00,,,0.00,Weather View 32 v70,2013-04-05 00:00:00,
2013-04-04 20:10:00,50.0,22.0,30.07,SSW,202,4.0,12.0,33,0.00,,,0.00,Weather View 32 v70,2013-04-05 00:10:00,
2013-04-04 20:15:00,50.0,22.7,30.07,SSW,202,8.0,12.0,34,0.00,,,0.00,Weather View 32 v70,2013-04-05 00:15:00,
2013-04-04 20:20:00,50.0,23.4,30.07,SSW,202,1.0,12.0,35,0.00,,,0.00,Weather View 32 v70,2013-04-05 00:20:00,
2013-04-04 20:30:00,50.0,24.7,30.06,SSE,157,6.0,12.0,37,0.00,,,0.00,Weather View 32 v70,2013-04-05 00:30:00,
2013-04-04 20:35:00,49.0,24.5,30.06,SW,225,1.0,12.0,38,0.00,,,0.00,Weather View 32 v70,2013-04-05 00:35:00,
2013-04-04 20:40:00,49.0,25.1,30.07,SSW,202,1.0,12.0,39,0.00,,,0.00,Weather View 32 v70,2013-04-05 00:40:00,
2013-04-04 20:50:00,48.0,25.4,30.07,SSW,202,8.0,12.0,41,0.00,,,0.00,Weather View 32 v70,2013-04-05 00:50:00,
2013-04-04 21:00:00,48.0,26.0,30.07,SSW,202,2.0,12.0,42,0.00,,,0.00,Weather View 32 v70,2013-04-05 01:00:00,
2013-04-04 21:10:00,48.0,26.5,30.06,WSW,247,0.0,12.0,43,0.00,,,0.00,Weather View 32 v70,2013-04-05 01:10:00,
2013-04-04 21:15:00,47.0,26.7,30.06,SSW,202,2.0,12.0,45,0.00,,,0.00,Weather View 32 v70,2013-04-05 01:15:00,
2013-04-04 21:20:00,47.0,27.3,30.06,SSW,202,0.0,11.0,46,0.00,,,0.00,Weather View 32 v70,2013-04-05 01:20:00,
2013-04-04 21:30:00,46.0,27.4,30.07,SSW,202,6.0,11.0,48,0.00,,,0.00,Weather View 32 v70,2013-04-05 01:30:00,
2013-04-04 21:35:00,46.0,27.4,30.07,South,180,9.0,11.0,48,0.00,,,0.00,Weather View 32 v70,2013-04-05 01:35:00,
2013-04-04 21:45:00,45.0,27.0,30.07,SSW,202,7.0,12.0,49,0.00,,,0.00,Weather View 32 v70,2013-04-05 01:45:00,
2013-04-04 21:55:00,45.0,27.5,30.07,SSW,202,0.0,12.0,50,0.00,,,0.00,Weather View 32 v70,2013-04-05 01:55:00,
2013-04-04 22:00:00,45.0,27.5,30.07,SSW,202,10.0,12.0,50,0.00,,,0.00,Weather View 32 v70,2013-04-05 02:00:00,
2013-04-04 22:05:00,45.0,27.5,30.06,SSW,202,5.0,12.0,50,0.00,,,0.00,Weather View 32 v70,2013-04-05 02:05:00,
2013-04-04 22:15:00,45.0,27.5,30.06,SSW,202,1.0,12.0,50,0.00,,,0.00,Weather View 32 v70,2013-04-05 02:15:00,
2013-04-04 22:25:00,45.0,27.5,30.05,SE,135,3.0,12.0,50,0.00,,,0.00,Weather View 32 v70,2013-04-05 02:25:00,
2013-04-04 22:30:00,45.0,27.5,30.05,South,180,0.0,12.0,50,0.00,,,0.00,Weather View 32 v70,2013-04-05 02:30:00,
2013-04-04 22:35:00,45.0,27.9,30.05,South,180,6.0,12.0,51,0.00,,,0.00,Weather View 32 v70,2013-04-05 02:35:00,
2013-04-04 22:40:00,45.0,27.9,30.05,SSW,202,1.0,12.0,51,0.00,,,0.00,Weather View 32 v70,2013-04-05 02:40:00,
2013-04-04 22:45:00,44.0,27.0,30.05,SSW,202,1.0,12.0,51,0.00,,,0.00,Weather View 32 v70,2013-04-05 02:45:00,
2013-04-04 22:50:00,44.0,27.5,30.05,SSW,202,3.0,11.0,52,0.00,,,0.00,Weather View 32 v70,2013-04-05 02:50:00,
2013-04-04 23:00:00,44.0,27.5,30.06,SW,225,5.0,11.0,52,0.00,,,0.00,Weather View 32 v70,2013-04-05 03:00:00,
2013-04-04 23:05:00,44.0,27.5,30.06,SSW,202,8.0,11.0,52,0.00,,,0.00,Weather View 32 v70,2013-04-05 03:05:00,
2013-04-04 23:10:00,44.0,27.9,30.06,SSW,202,6.0,11.0,53,0.00,,,0.00,Weather View 32 v70,2013-04-05 03:10:00,
2013-04-04 23:15:00,44.0,27.9,30.05,SSW,202,1.0,11.0,53,0.00,,,0.00,Weather View 32 v70,2013-04-05 03:15:00,
2013-04-04 23:20:00,44.0,28.4,30.05,SSW,202,7.0,11.0,54,0.00,,,0.00,Weather View 32 v70,2013-04-05 03:20:00,
2013-04-04 23:30:00,43.0,27.5,30.05,SSW,202,0.0,11.0,54,0.00,,,0.00,Weather View 32 v70,2013-04-05 03:30:00,
2013-04-04 23:35:00,43.0,27.9,30.05,SSW,202,11.0,11.0,55,0.00,,,0.00,Weather View 32 v70,2013-04-05 03:35:00,
2013-04-04 23:45:00,43.0,28.4,30.05,SSW,202,0.0,11.0,56,0.00,,,0.00,Weather View 32 v70,2013-04-05 03:45:00,
2013-04-04 23:50:00,43.0,28.4,30.05,SSE,157,0.0,11.0,56,0.00,,,0.00,Weather View 32 v70,2013-04-05 03:50:00,